Flight Track Log - Related Links

Times and Time Zones

All times are in EDT time to prevent confusion due to time zone crossing. See the NLY8822 flight status page for this flight to view local times or setup timezone preferences in your user account.

Time Position Orientation Groundspeed Altitude Reporting Facility
EDT Latitude Longitude Course Direction KTS MPH feet Rate Location/Type
Wed 12:39:22 AM 48.1180 16.5490 292° West 140 161 800  Level FlightAware ADS-B
Wed 12:39:42 AM 48.1130 16.5290 249° West 160 184 1,900 2,700 Climbing FlightAware ADS-B
Wed 12:40:02 AM 48.1020 16.5110 228° Southwest 182 209 2,600 2,040 Climbing FlightAware ADS-B
Wed 12:40:32 AM 48.0770 16.4730 225° Southwest 256 295 3,600 2,677 Climbing FlightAware ADS-B
Wed 12:41:07 AM 48.0470 16.4440 213° Southwest 267 307 5,500 4,200 Climbing FlightAware ADS-B
Wed 12:41:32 AM 48.0170 16.4160 212° Southwest 255 293 7,800 4,800 Climbing FlightAware ADS-B
Wed 12:41:47 AM 48.0060 16.4000 224° Southwest 254 292 8,700 3,840 Climbing FlightAware ADS-B
Wed 12:41:57 AM 47.9980 16.3830 235° Southwest 262 302 9,400 3,000 Climbing FlightAware ADS-B
Wed 12:42:37 AM 47.9710 16.3210 237° Southwest 295 339 11,200 2,667 Climbing FlightAware ADS-B
Wed 12:43:27 AM 47.9310 16.2290 237° Southwest 332 382 13,400 2,753 Climbing FlightAware ADS-B
Wed 12:44:02 AM 47.9000 16.1580 237° Southwest 349 402 15,100 2,753 Climbing FlightAware ADS-B
Wed 12:44:52 AM 47.8530 16.0540 236° Southwest 366 421 17,300 2,753 Climbing FlightAware ADS-B
Wed 12:45:27 AM 47.8190 15.9760 237° Southwest 380 437 19,000 2,480 Climbing FlightAware ADS-B
Wed 12:46:07 AM 47.7820 15.8930 236° Southwest 391 450 20,400 2,400 Climbing FlightAware ADS-B
Wed 12:46:47 AM 47.7410 15.8000 237° Southwest 397 457 22,200 2,400 Climbing FlightAware ADS-B
Wed 12:47:27 AM 47.7000 15.7080 237° Southwest 413 475 23,600 2,067 Climbing FlightAware ADS-B
Wed 12:48:17 AM 47.6460 15.5880 236° Southwest 424 488 25,300 1,958 Climbing FlightAware ADS-B
Wed 12:49:02 AM 47.5920 15.4670 237° Southwest 445 512 26,700 1,835 Climbing FlightAware ADS-B
Wed 12:49:42 AM 47.5480 15.3700 236° Southwest 444 511 27,900 1,950 Climbing FlightAware ADS-B
Wed 12:50:22 AM 47.5040 15.2730 236° Southwest 446 513 29,300 2,118 Climbing FlightAware ADS-B
Wed 12:51:07 AM 47.4500 15.1540 236° Southwest 446 513 30,900 1,950 Climbing FlightAware ADS-B
Wed 12:51:42 AM 47.4160 15.0770 237° Southwest 448 516 31,900 1,694 Climbing FlightAware ADS-B
Wed 12:52:32 AM 47.3680 14.9250 245° Southwest 450 518 33,300 1,412 Climbing FlightAware ADS-B
Wed 12:53:07 AM 47.3480 14.8320 252° West 451 519 33,900 525 Climbing FlightAware ADS-B
Wed 12:53:52 AM 47.3180 14.6800 254° West 442 509 34,000 71 Climbing FlightAware ADS-B
Wed 12:54:32 AM 47.2940 14.5650 253° West 444 511 34,000  Level FlightAware ADS-B
Wed 12:55:12 AM 47.2710 14.4500 254° West 446 513 34,000  Level FlightAware ADS-B
Wed 12:55:57 AM 47.2440 14.3200 253° West 447 514 34,000  Level FlightAware ADS-B
Wed 12:56:42 AM 47.2190 14.1980 253° West 448 516 34,000  Level FlightAware ADS-B
Wed 12:57:32 AM 47.1870 14.0460 253° West 448 516 34,000  Level FlightAware ADS-B
Wed 12:58:22 AM 47.1560 13.8970 253° West 447 514 34,000  Level FlightAware ADS-B
Wed 12:59:02 AM 47.1320 13.7810 253° West 448 516 34,000  Level FlightAware ADS-B
Wed 12:59:42 AM 47.1060 13.6620 252° West 448 516 34,000  Level FlightAware ADS-B
Wed 01:00:27 AM 47.0790 13.5320 253° West 448 516 34,000  Level FlightAware ADS-B
Wed 01:01:07 AM 47.0540 13.4200 252° West 446 513 34,000  Level FlightAware ADS-B
Wed 01:01:52 AM 47.0260 13.2900 253° West 447 514 34,000  Level FlightAware ADS-B
Wed 01:02:32 AM 47.0000 13.1700 252° West 447 514 34,000  Level FlightAware ADS-B
Wed 01:03:12 AM 46.9750 13.0530 253° West 448 516 34,000  Level FlightAware ADS-B
Wed 01:03:57 AM 46.9460 12.9230 252° West 447 514 34,000  Level FlightAware ADS-B
Wed 01:04:37 AM 46.9210 12.8090 252° West 447 514 34,000  Level FlightAware ADS-B
Wed 01:05:22 AM 46.8920 12.6790 252° West 448 516 34,000  Level FlightAware ADS-B
Wed 01:06:02 AM 46.8660 12.5630 252° West 447 514 34,000  Level FlightAware ADS-B
Wed 01:06:42 AM 46.8400 12.4460 252° West 446 513 34,000  Level FlightAware ADS-B
Wed 01:07:27 AM 46.8120 12.3230 252° West 450 518 34,000  Level FlightAware ADS-B
Wed 01:08:07 AM 46.7770 12.2060 246° West 450 518 34,000  Level FlightAware ADS-B
Wed 01:08:52 AM 46.7360 12.0840 244° Southwest 449 517 34,000  Level FlightAware ADS-B
Wed 01:09:32 AM 46.6980 11.9740 243° Southwest 450 518 34,000  Level FlightAware ADS-B
Wed 01:10:12 AM 46.6630 11.8700 244° Southwest 450 518 34,000  Level FlightAware ADS-B
Wed 01:10:57 AM 46.6190 11.7420 243° Southwest 451 519 34,000  Level FlightAware ADS-B
Wed 01:11:37 AM 46.5810 11.6320 243° Southwest 451 519 34,000  Level FlightAware ADS-B
Wed 01:12:22 AM 46.5390 11.5090 244° Southwest 451 519 34,000  Level FlightAware ADS-B
Wed 01:13:02 AM 46.5010 11.4010 243° Southwest 452 520 34,000  Level FlightAware ADS-B
Wed 01:13:42 AM 46.4620 11.2900 243° Southwest 451 519 34,000  Level FlightAware ADS-B
Wed 01:14:27 AM 46.4200 11.1700 243° Southwest 450 518 34,000  Level FlightAware ADS-B
Wed 01:15:07 AM 46.3820 11.0600 243° Southwest 451 519 34,000  Level FlightAware ADS-B
Wed 01:15:47 AM 46.3440 10.9520 243° Southwest 456 525 34,000 -424 Level FlightAware ADS-B
Wed 01:16:32 AM 46.3000 10.8280 243° Southwest 454 522 33,400 -706 Descending FlightAware ADS-B
Wed 01:17:12 AM 46.2610 10.7210 242° Southwest 459 528 33,000 -282 Descending FlightAware ADS-B
Wed 01:17:57 AM 46.2180 10.6020 242° Southwest 460 529 33,000 -212 Level FlightAware ADS-B
Wed 01:18:37 AM 46.1780 10.4890 243° Southwest 458 527 32,700 -1,275 Descending FlightAware ADS-B
Wed 01:19:17 AM 46.1390 10.3810 243° Southwest 460 529 31,300 -2,259 Descending FlightAware ADS-B
Wed 01:20:02 AM 46.0940 10.2580 242° Southwest 460 529 29,500 -1,624 Descending FlightAware ADS-B
Wed 01:20:42 AM 46.0550 10.1510 242° Southwest 462 532 29,000 -1,200 Descending FlightAware ADS-B
Wed 01:21:22 AM 46.0160 10.0400 243° Southwest 458 527 27,900 -1,412 Descending FlightAware ADS-B
Wed 01:22:07 AM 45.9750 9.9270 242° Southwest 427 491 27,000 -1,482 Descending FlightAware ADS-B
Wed 01:22:47 AM 45.9400 9.8280 243° Southwest 407 468 25,800 -1,412 Descending FlightAware ADS-B
Wed 01:23:32 AM 45.9030 9.7260 242° Southwest 390 449 25,000 -1,129 Descending FlightAware ADS-B
Wed 01:24:12 AM 45.8690 9.6310 243° Southwest 372 428 24,200 -2,259 Descending FlightAware ADS-B
Wed 01:24:57 AM 45.8310 9.5250 243° Southwest 396 456 21,800 -3,106 Descending FlightAware ADS-B
Wed 01:25:37 AM 45.7970 9.4320 242° Southwest 406 467 19,800 -3,075 Descending FlightAware ADS-B
Wed 01:26:17 AM 45.7620 9.3340 243° Southwest 413 475 17,700 -3,459 Descending FlightAware ADS-B
Wed 01:27:02 AM 45.7220 9.2280 242° Southwest 427 491 14,900 -3,857 Descending FlightAware ADS-B
Wed 01:27:27 AM 45.6830 9.1800 221° Southwest 421 484 13,200 -3,343 Descending FlightAware ADS-B
Wed 01:28:12 AM 45.6060 9.1370 201° Southwest 392 451 11,000 -3,176 Descending FlightAware ADS-B
Wed 01:28:52 AM 45.5460 9.1040 201° Southwest 386 444 8,700 -2,824 Descending FlightAware ADS-B
Wed 01:29:37 AM 45.4710 9.0630 201° Southwest 350 403 7,000 -2,057 Descending FlightAware ADS-B
Wed 01:30:02 AM 45.4350 9.0430 201° Southwest 331 381 6,300 -2,073 Descending FlightAware ADS-B
Wed 01:30:32 AM 45.3870 9.0170 201° Southwest 319 367 5,100 -1,560 Descending FlightAware ADS-B
Wed 01:30:52 AM 45.3640 9.0040 202° Southwest 302 348 5,000 -545 Descending FlightAware ADS-B
Wed 01:31:27 AM 45.3390 8.9470 238° Southwest 268 308 4,600 -800 Descending FlightAware ADS-B
Wed 01:31:52 AM 45.3360 8.9070 264° West 264 304 4,200 -655 Descending FlightAware ADS-B
Wed 01:32:22 AM 45.3520 8.8640 298° West 229 264 4,000 -533 Descending FlightAware ADS-B
Wed 01:32:37 AM 45.3630 8.8500 318° Northwest 222 255 3,800 -800 Descending FlightAware ADS-B
Wed 01:33:07 AM 45.3860 8.8240 322° Northwest 212 244 3,400 -933 Descending FlightAware ADS-B
Wed 01:33:22 AM 45.3970 8.8100 318° Northwest 211 243 3,100 -933 Descending FlightAware ADS-B
Wed 01:33:52 AM 45.4210 8.7840 323° Northwest 206 237 2,700 -545 Descending FlightAware ADS-B
Wed 01:34:17 AM 45.4450 8.7740 344° North 202 232 2,600 -109 Descending FlightAware ADS-B
Wed 01:34:47 AM 45.4720 8.7670 350° North 201 231 2,600  Level FlightAware ADS-B
Wed 01:35:12 AM 45.4930 8.7610 349° North 191 220 2,600 -436 Level FlightAware ADS-B
Wed 01:35:42 AM 45.5190 8.7540 349° North 185 213 2,200 -900 Descending FlightAware ADS-B
Wed 01:36:12 AM 45.5440 8.7470 349° North 170 196 1,700 -982 Descending FlightAware ADS-B
Wed 01:36:37 AM 45.5620 8.7420 349° North 152 175 1,300 -764 Descending FlightAware ADS-B
Wed 01:37:07 AM 45.5800 8.7370 349° North 133 153 1,000 -600 Descending FlightAware ADS-B
Wed 01:37:27 AM 45.5930 8.7330 348° North 126 145 800 -400 Descending FlightAware ADS-B
Wed 01:38:07 AM 45.6140 8.7270 349° North 125 144 600 -300 Descending FlightAware ADS-B
Wed 01:40:00 AM 45.6306 8.7281 North  Level Estimated
Wed 01:41:00 AM 45.6306 8.7281 170° South  Level Estimated
Wed 01:42:00 AM 45.6306 8.7281 170° South  Level Estimated
Wed 01:43:00 AM 45.6306 8.7281 170° South  Level Estimated
Wed 01:44:00 AM 45.6306 8.7281 170° South  Level Estimated
Wed 01:45:00 AM 45.6306 8.7281 170° South  Level Estimated

Login

Don't have an account? Register now (free) for customized features, flight alerts, and more!